Time;durP1;ratioP1;P1;durP2;ratioP2;P2;SDS_P1;SDS_P2;PMS_P1;PMS_P2;Temp;Humidity;BMP_temperature;BMP_pressure;BME280_temperature;BME280_humidity;BME280_pressure;Samples;Min_cycle;Max_cycle;Signal;HPM_P1;HPM_P2
2022/02/12 00:00:55;;;;;;;4.60;1.83;;;-0.10;1.00;;;;;;5095127;28;20918;-59
2022/02/12 00:03:21;;;;;;;9.70;1.87;;;0.00;1.00;;;;;;5094898;28;20500;-58
2022/02/12 00:05:48;;;;;;;13.27;2.73;;;0.00;1.00;;;;;;5095088;28;20447;-56
2022/02/12 00:08:14;;;;;;;4.10;1.57;;;0.00;1.00;;;;;;5094844;28;20448;-54
2022/02/12 00:10:41;;;;;;;8.80;2.20;;;-0.10;1.00;;;;;;5094768;28;20466;-59
2022/02/12 00:13:10;;;;;;;7.47;2.50;;;-0.10;1.00;;;;;;5094758;28;20889;-55
2022/02/12 00:15:38;;;;;;;7.50;2.33;;;-0.20;1.00;;;;;;5094475;28;20458;-54
2022/02/12 00:18:05;;;;;;;5.03;2.33;;;-0.20;1.00;;;;;;5094699;28;20927;-53
2022/02/12 00:20:32;;;;;;;5.50;2.10;;;-0.20;1.00;;;;;;5094559;28;20462;-55
2022/02/12 00:22:58;;;;;;;6.67;2.33;;;-0.30;1.00;;;;;;5094642;28;20463;-55
2022/02/12 00:25:25;;;;;;;9.43;2.43;;;-0.20;1.00;;;;;;5094695;28;20500;-56
2022/02/12 00:27:52;;;;;;;7.80;2.30;;;-0.20;1.00;;;;;;5094107;28;20457;-55
2022/02/12 00:30:18;;;;;;;6.23;2.57;;;-0.20;1.00;;;;;;5094816;28;20453;-56
2022/02/12 00:32:46;;;;;;;5.53;2.20;;;-0.20;1.00;;;;;;5094059;28;20470;-55
2022/02/12 00:35:13;;;;;;;10.73;3.17;;;-0.20;1.00;;;;;;5094705;28;20452;-56
2022/02/12 00:37:40;;;;;;;6.87;2.57;;;-0.20;1.00;;;;;;5094375;28;20446;-56
2022/02/12 00:40:07;;;;;;;6.10;2.70;;;-0.20;1.00;;;;;;5094606;28;20446;-52
2022/02/12 00:42:34;;;;;;;4.83;1.87;;;-0.20;1.00;;;;;;5094502;28;20462;-57
2022/02/12 00:45:02;;;;;;;7.97;2.50;;;-0.30;1.00;;;;;;5093998;28;20446;-54
2022/02/12 00:47:29;;;;;;;6.73;2.00;;;-0.20;1.00;;;;;;5094356;28;20460;-55
2022/02/12 00:49:57;;;;;;;5.37;2.47;;;-0.20;1.00;;;;;;5093929;28;20545;-56
2022/02/12 00:52:23;;;;;;;10.67;2.90;;;-0.20;1.00;;;;;;5094156;28;20452;-56
2022/02/12 00:54:50;;;;;;;7.40;2.00;;;-0.20;1.00;;;;;;5093891;28;20478;-54
2022/02/12 00:57:17;;;;;;;8.27;2.30;;;-0.20;1.00;;;;;;5094215;28;20445;-56
2022/02/12 00:59:44;;;;;;;9.57;3.03;;;-0.20;1.00;;;;;;5094587;28;20446;-54
2022/02/12 01:02:11;;;;;;;12.40;3.07;;;-0.30;1.00;;;;;;5095822;28;20451;-57
2022/02/12 01:04:37;;;;;;;6.40;2.63;;;-0.30;1.00;;;;;;5094463;28;20507;-57
2022/02/12 01:07:05;;;;;;;7.07;2.53;;;-0.40;1.00;;;;;;5093680;28;20443;-57
2022/02/12 01:09:32;;;;;;;7.70;2.57;;;-0.40;1.00;;;;;;5093761;28;20446;-57
2022/02/12 01:12:01;;;;;;;6.73;2.30;;;-0.50;1.00;;;;;;5093760;28;20538;-57
2022/02/12 01:14:28;;;;;;;3.73;1.90;;;-0.50;1.00;;;;;;5093548;28;20496;-56
2022/02/12 01:16:55;;;;;;;7.50;2.30;;;-0.50;1.00;;;;;;5093395;28;20497;-58
2022/02/12 01:19:21;;;;;;;5.67;2.43;;;-0.60;1.00;;;;;;5093435;28;20446;-56
2022/02/12 01:21:48;;;;;;;12.17;2.27;;;-0.50;1.00;;;;;;5093672;28;20447;-56
2022/02/12 01:24:16;;;;;;;4.47;2.17;;;-0.50;1.00;;;;;;5092948;28;20462;-56
2022/02/12 01:26:43;;;;;;;8.43;2.30;;;-0.60;1.00;;;;;;5093300;28;20447;-58
2022/02/12 01:29:10;;;;;;;5.17;2.20;;;-0.60;1.00;;;;;;5093546;28;20454;-56
2022/02/12 01:31:37;;;;;;;4.67;2.30;;;-0.60;1.00;;;;;;5093426;28;20546;-56
2022/02/12 01:34:04;;;;;;;5.47;1.73;;;-0.50;1.00;;;;;;5093080;28;20531;-53
2022/02/12 01:36:30;;;;;;;4.00;1.70;;;-0.50;1.00;;;;;;5092730;28;20805;-57
2022/02/12 01:38:57;;;;;;;4.97;2.10;;;-0.50;1.00;;;;;;5093136;28;20983;-56
2022/02/12 01:41:25;;;;;;;6.50;1.90;;;-0.60;1.00;;;;;;5092688;28;21014;-55
2022/02/12 01:43:52;;;;;;;5.67;1.80;;;-0.60;1.00;;;;;;5092782;28;20469;-55
2022/02/12 01:46:18;;;;;;;5.53;1.80;;;-0.60;1.00;;;;;;5092755;28;20500;-53
2022/02/12 01:48:45;;;;;;;11.00;2.00;;;-0.50;1.00;;;;;;5092665;28;20458;-56
2022/02/12 01:51:12;;;;;;;6.20;1.80;;;-0.40;1.00;;;;;;5092725;28;20476;-53
2022/02/12 01:53:39;;;;;;;10.57;1.80;;;-0.30;1.00;;;;;;5092757;28;20478;-55
2022/02/12 01:56:06;;;;;;;5.90;2.03;;;-0.20;1.00;;;;;;5092597;28;20842;-57
2022/02/12 01:58:35;;;;;;;7.43;2.00;;;-0.10;1.00;;;;;;5092776;28;20508;-51
2022/02/12 02:01:01;;;;;;;7.10;2.23;;;0.00;1.00;;;;;;5092703;28;20998;-55
2022/02/12 02:03:28;;;;;;;4.83;1.93;;;0.00;1.00;;;;;;5092648;28;20463;-57
2022/02/12 02:05:55;;;;;;;5.37;1.87;;;0.00;1.00;;;;;;5092097;28;20450;-57
2022/02/12 02:08:22;;;;;;;6.03;2.47;;;0.00;1.00;;;;;;5092785;28;20533;-58
2022/02/12 02:10:49;;;;;;;7.63;2.27;;;-0.10;1.00;;;;;;5092302;28;20963;-55
2022/02/12 02:13:23;;;;;;;8.20;2.63;;;-0.20;1.00;;;;;;5092755;28;20547;-57
2022/02/12 02:15:51;;;;;;;5.93;1.80;;;-0.20;1.00;;;;;;5092287;28;20450;-53
2022/02/12 02:18:18;;;;;;;13.57;2.77;;;-0.30;1.00;;;;;;5092236;28;20986;-56
2022/02/12 02:20:45;;;;;;;4.20;2.60;;;-0.30;1.00;;;;;;5091924;28;20500;-53
2022/02/12 02:23:13;;;;;;;5.10;1.97;;;-0.30;1.00;;;;;;5092361;28;20459;-51
2022/02/12 02:25:40;;;;;;;6.00;2.40;;;-0.30;1.00;;;;;;5092495;28;20453;-55
2022/02/12 02:28:07;;;;;;;7.47;2.17;;;-0.40;1.00;;;;;;5092018;28;20527;-58
2022/02/12 02:30:33;;;;;;;5.10;2.13;;;-0.40;1.00;;;;;;5092284;28;20450;-56
2022/02/12 02:33:00;;;;;;;6.97;1.77;;;-0.50;1.00;;;;;;5091846;28;20470;-56
2022/02/12 02:35:27;;;;;;;5.43;1.90;;;-0.50;1.00;;;;;;5092251;28;20485;-56
2022/02/12 02:37:54;;;;;;;6.83;2.23;;;-0.50;1.00;;;;;;5092358;28;20504;-57
2022/02/12 02:40:24;;;;;;;4.60;2.30;;;-0.50;1.00;;;;;;5091874;28;20442;-57
2022/02/12 02:42:52;;;;;;;7.10;2.43;;;-0.50;1.00;;;;;;5092095;28;20968;-55
2022/02/12 02:45:19;;;;;;;10.83;2.30;;;-0.50;1.00;;;;;;5091746;28;20500;-56
2022/02/12 02:47:46;;;;;;;5.87;2.30;;;-0.50;1.00;;;;;;5092093;28;20454;-58
2022/02/12 02:56:00;;;;;;;9.80;2.30;;;-0.60;1.00;;;;;;5091943;28;20418;-55
2022/02/12 02:58:28;;;;;;;8.03;2.53;;;-0.70;1.00;;;;;;5091729;28;20450;-58
2022/02/12 03:00:55;;;;;;;10.63;2.73;;;-0.70;1.00;;;;;;5092227;28;20495;-58
2022/02/12 03:03:22;;;;;;;6.27;2.33;;;-0.70;1.00;;;;;;5091667;28;20462;-58
2022/02/12 03:05:48;;;;;;;3.97;2.13;;;-0.80;1.00;;;;;;5091728;28;20452;-58
2022/02/12 03:08:15;;;;;;;5.90;2.43;;;-0.80;1.00;;;;;;5091309;28;20493;-58
2022/02/12 03:10:42;;;;;;;5.43;2.37;;;-0.80;1.00;;;;;;5091794;28;20447;-57
2022/02/12 03:13:10;;;;;;;6.73;2.63;;;-0.80;1.00;;;;;;5091963;28;20462;-58
2022/02/12 03:15:41;;;;;;;4.60;2.20;;;-0.80;1.00;;;;;;5091603;28;20890;-58
2022/02/12 03:18:08;;;;;;;7.10;2.50;;;-0.90;1.00;;;;;;5091566;28;20608;-58
2022/02/12 03:20:35;;;;;;;8.87;2.97;;;-0.80;1.00;;;;;;5091489;28;20442;-58
2022/02/12 03:23:02;;;;;;;11.43;3.00;;;-0.80;1.00;;;;;;5091929;28;20520;-57
2022/02/12 03:25:29;;;;;;;8.83;2.60;;;-0.80;1.00;;;;;;5091837;28;20439;-57
2022/02/12 03:27:57;;;;;;;14.70;2.83;;;-0.80;1.00;;;;;;5091886;28;20447;-58
2022/02/12 03:30:25;;;;;;;10.50;2.20;;;-0.70;1.00;;;;;;5091868;28;20479;-58
2022/02/12 03:32:52;;;;;;;5.70;2.67;;;-0.70;1.00;;;;;;5094323;28;20462;-58
2022/02/12 03:35:19;;;;;;;8.13;2.83;;;-0.70;1.00;;;;;;5095404;28;20474;-58
2022/02/12 03:37:46;;;;;;;8.50;2.37;;;-0.60;1.00;;;;;;5095004;28;20450;-58
2022/02/12 03:40:13;;;;;;;12.93;2.57;;;-0.60;1.00;;;;;;5096016;28;20446;-58
2022/02/12 03:42:40;;;;;;;13.17;3.07;;;-0.60;1.00;;;;;;5095472;28;20516;-56
2022/02/12 03:45:08;;;;;;;10.97;2.77;;;-0.60;1.00;;;;;;5095237;28;21001;-58
2022/02/12 03:47:36;;;;;;;10.67;3.40;;;-0.60;1.00;;;;;;5095076;28;20499;-58
2022/02/12 03:50:03;;;;;;;5.53;2.40;;;-0.70;1.00;;;;;;5094716;28;20480;-59
2022/02/12 03:52:30;;;;;;;7.97;3.00;;;-0.70;1.00;;;;;;5095472;28;20791;-57
2022/02/12 03:54:57;;;;;;;10.83;3.33;;;-0.60;1.00;;;;;;5094771;28;21017;-58
2022/02/12 03:57:23;;;;;;;5.97;3.00;;;-0.60;1.00;;;;;;5095358;28;20449;-58
2022/02/12 03:59:50;;;;;;;6.63;2.60;;;-0.60;1.00;;;;;;5094972;28;20450;-58
2022/02/12 04:02:17;;;;;;;10.47;2.90;;;-0.50;1.00;;;;;;5095226;28;20457;-58
2022/02/12 04:04:45;;;;;;;8.20;3.10;;;-0.50;1.00;;;;;;5094805;28;20487;-58
2022/02/12 04:07:11;;;;;;;15.73;3.10;;;-0.40;1.00;;;;;;5097044;28;20442;-57
2022/02/12 04:09:38;;;;;;;9.53;2.90;;;-0.40;1.00;;;;;;5098939;28;20464;-56
2022/02/12 04:12:05;;;;;;;6.37;2.90;;;-0.40;1.00;;;;;;5094710;28;20495;-57
2022/02/12 04:14:32;;;;;;;9.60;2.83;;;-0.40;1.00;;;;;;5094534;28;20482;-57
2022/02/12 04:16:58;;;;;;;12.57;3.30;;;-0.30;1.00;;;;;;5094479;28;20500;-57
2022/02/12 04:19:25;;;;;;;10.23;2.80;;;-0.40;1.00;;;;;;5094530;28;20446;-57
2022/02/12 04:21:53;;;;;;;7.07;2.63;;;-0.40;1.00;;;;;;5095011;28;20454;-57
2022/02/12 04:24:20;;;;;;;7.27;2.57;;;-0.30;1.00;;;;;;5094464;28;20463;-58
2022/02/12 04:26:46;;;;;;;8.90;2.83;;;-0.30;1.00;;;;;;5094572;28;20515;-58
2022/02/12 04:29:13;;;;;;;7.87;2.50;;;-0.30;1.00;;;;;;5094252;28;21098;-58
2022/02/12 04:31:40;;;;;;;6.93;2.80;;;-0.30;1.00;;;;;;5094304;28;20874;-58
2022/02/12 04:34:06;;;;;;;5.70;2.70;;;-0.40;1.00;;;;;;5094425;28;20883;-57
2022/02/12 04:36:33;;;;;;;7.13;2.43;;;-0.40;1.00;;;;;;5094034;28;20458;-56
2022/02/12 04:39:01;;;;;;;11.33;3.00;;;-0.40;1.00;;;;;;5094354;28;20864;-58
2022/02/12 04:41:28;;;;;;;7.87;2.63;;;-0.40;1.00;;;;;;5094042;28;20868;-58
2022/02/12 04:43:54;;;;;;;10.20;3.33;;;-0.40;1.00;;;;;;5093937;28;20976;-56
2022/02/12 04:46:21;;;;;;;12.17;3.10;;;-0.30;1.00;;;;;;5093814;28;21154;-62
2022/02/12 04:48:49;;;;;;;10.63;2.90;;;-0.40;1.00;;;;;;5093943;28;20936;-58
2022/02/12 04:51:16;;;;;;;9.70;2.57;;;-0.40;1.00;;;;;;5094405;28;20439;-56
2022/02/12 04:53:43;;;;;;;15.13;3.27;;;-0.40;1.00;;;;;;5093875;28;20553;-57
2022/02/12 04:56:11;;;;;;;10.87;4.63;;;-0.50;1.00;;;;;;5093760;28;20559;-57
2022/02/12 04:58:38;;;;;;;8.70;3.37;;;-0.40;1.00;;;;;;5093640;28;20571;-58
2022/02/12 05:01:04;;;;;;;6.53;3.03;;;-0.50;1.00;;;;;;5094255;28;20476;-57
2022/02/12 05:03:31;;;;;;;4.73;2.40;;;-0.50;1.00;;;;;;5093704;28;20467;-58
2022/02/12 05:05:58;;;;;;;4.40;2.37;;;-0.50;1.00;;;;;;5093875;28;20446;-58
2022/02/12 05:08:24;;;;;;;7.07;2.57;;;-0.50;1.00;;;;;;5093967;28;20446;-56
2022/02/12 05:10:51;;;;;;;15.63;3.23;;;-0.50;1.00;;;;;;5093483;28;20491;-58
2022/02/12 05:13:19;;;;;;;5.43;3.00;;;-0.60;1.00;;;;;;5093494;28;20992;-57
2022/02/12 05:15:46;;;;;;;12.50;3.10;;;-0.60;1.00;;;;;;5093207;28;20996;-56
2022/02/12 05:18:12;;;;;;;9.53;3.07;;;-0.60;1.00;;;;;;5093438;28;21019;-57
2022/02/12 05:20:39;;;;;;;5.27;2.70;;;-0.70;1.00;;;;;;5093213;28;20450;-56
2022/02/12 05:23:05;;;;;;;10.93;2.43;;;-0.70;1.00;;;;;;5093474;28;20466;-58
2022/02/12 05:25:32;;;;;;;5.67;2.37;;;-0.60;1.00;;;;;;5093772;28;20492;-57
2022/02/12 05:27:59;;;;;;;7.23;2.57;;;-0.60;1.00;;;;;;5093250;28;20487;-58
2022/02/12 05:30:27;;;;;;;11.97;3.10;;;-0.60;1.00;;;;;;5093387;28;20519;-57
2022/02/12 05:32:54;;;;;;;7.97;2.67;;;-0.70;1.00;;;;;;5093211;28;20466;-57
2022/02/12 05:35:20;;;;;;;4.97;2.27;;;-0.70;1.00;;;;;;5093434;28;20508;-58
2022/02/12 05:37:47;;;;;;;12.33;2.70;;;-0.70;1.00;;;;;;5092954;28;20442;-58
2022/02/12 05:40:14;;;;;;;5.13;2.10;;;-0.70;1.00;;;;;;5093207;28;20446;-56
2022/02/12 05:42:40;;;;;;;6.73;2.27;;;-0.60;1.00;;;;;;5093022;28;21037;-58
2022/02/12 05:45:08;;;;;;;8.13;2.47;;;-0.50;1.00;;;;;;5092909;28;20446;-59
2022/02/12 05:47:39;;;;;;;7.43;3.17;;;-0.60;1.00;;;;;;5093083;28;20476;-56
2022/02/12 05:50:07;;;;;;;8.33;3.10;;;-0.50;1.00;;;;;;5092982;28;20455;-57
2022/02/12 05:52:34;;;;;;;10.53;2.80;;;-0.60;1.00;;;;;;5092990;28;20462;-57
2022/02/12 05:55:01;;;;;;;7.00;2.07;;;-0.50;1.00;;;;;;5091869;28;20478;-59
2022/02/12 05:57:28;;;;;;;12.57;2.77;;;-0.50;1.00;;;;;;5092923;28;20451;-56
2022/02/12 05:59:55;;;;;;;8.10;2.37;;;-0.40;1.00;;;;;;5092828;28;20457;-55
2022/02/12 06:02:22;;;;;;;9.53;2.60;;;-0.40;1.00;;;;;;5092593;28;20446;-54
2022/02/12 06:04:50;;;;;;;11.87;3.03;;;-0.40;1.00;;;;;;5093220;28;20540;-58
2022/02/12 06:07:16;;;;;;;4.70;2.43;;;-0.50;1.00;;;;;;5092684;28;20451;-57
2022/02/12 06:09:43;;;;;;;8.43;2.87;;;-0.50;1.00;;;;;;5092766;28;20451;-55
2022/02/12 06:12:10;;;;;;;5.80;2.70;;;-0.50;1.00;;;;;;5092693;28;20450;-56
2022/02/12 06:14:36;;;;;;;6.93;2.97;;;-0.60;1.00;;;;;;5092294;28;20474;-55
2022/02/12 06:17:04;;;;;;;8.53;2.50;;;-0.60;1.00;;;;;;5092289;28;20949;-58
2022/02/12 06:19:31;;;;;;;12.20;2.97;;;-0.70;1.00;;;;;;5092303;28;20947;-52
2022/02/12 06:21:59;;;;;;;7.87;2.20;;;-0.70;1.00;;;;;;5092222;28;20443;-57
2022/02/12 06:24:26;;;;;;;13.23;2.73;;;-0.60;1.00;;;;;;5092340;28;21138;-58
2022/02/12 06:26:56;;;;;;;7.13;2.20;;;-0.60;1.00;;;;;;5092597;28;21001;-55
2022/02/12 06:29:23;;;;;;;7.20;2.57;;;-0.60;1.00;;;;;;5092502;28;20533;-58
2022/02/12 06:31:50;;;;;;;9.97;2.73;;;-0.50;1.00;;;;;;5092046;28;21110;-56
2022/02/12 06:34:17;;;;;;;10.57;3.30;;;-0.50;1.00;;;;;;5092121;28;20545;-55
2022/02/12 06:36:44;;;;;;;8.57;2.47;;;-0.60;1.00;;;;;;5091657;28;20527;-55
2022/02/12 06:39:12;;;;;;;5.10;2.63;;;-0.60;1.00;;;;;;5092342;28;20511;-58
2022/02/12 06:41:39;;;;;;;9.07;2.60;;;-0.60;1.00;;;;;;5091780;28;20447;-57
2022/02/12 06:44:06;;;;;;;13.00;3.63;;;-0.60;1.00;;;;;;5092224;28;20466;-55
2022/02/12 06:46:33;;;;;;;11.20;2.73;;;-0.60;1.00;;;;;;5091873;28;20477;-58
2022/02/12 06:49:00;;;;;;;12.90;2.93;;;-0.70;1.00;;;;;;5092676;28;20944;-58
2022/02/12 06:51:27;;;;;;;7.23;2.20;;;-0.70;1.00;;;;;;5094628;28;20443;-57
2022/02/12 06:53:53;;;;;;;9.97;2.50;;;-0.60;1.00;;;;;;5092075;28;20516;-58
2022/02/12 06:56:21;;;;;;;11.00;3.10;;;-0.60;1.00;;;;;;5092354;28;20490;-58
2022/02/12 06:58:48;;;;;;;4.60;2.30;;;-0.60;1.00;;;;;;5092437;28;20491;-57
2022/02/12 07:01:14;;;;;;;5.23;2.10;;;-0.60;1.00;;;;;;5092023;28;20459;-59
2022/02/12 07:03:41;;;;;;;6.03;2.63;;;-0.60;1.00;;;;;;5091913;28;20466;-58
2022/02/12 07:06:08;;;;;;;10.10;2.77;;;-0.60;1.00;;;;;;5093398;28;20503;-57
2022/02/12 07:08:35;;;;;;;6.33;2.93;;;-0.60;1.00;;;;;;5096045;28;20446;-59
2022/02/12 07:11:01;;;;;;;6.00;2.20;;;-0.60;1.00;;;;;;5095873;28;20446;-59
2022/02/12 07:13:29;;;;;;;12.43;2.73;;;-0.50;1.00;;;;;;5095958;28;20462;-58
2022/02/12 07:15:59;;;;;;;12.37;2.50;;;-0.50;1.00;;;;;;5095862;28;20482;-58
2022/02/12 07:18:26;;;;;;;9.10;2.63;;;-0.50;1.00;;;;;;5096065;28;20497;-58
2022/02/12 07:20:53;;;;;;;9.87;2.57;;;-0.50;1.00;;;;;;5095952;28;20444;-57
2022/02/12 07:23:19;;;;;;;7.07;2.87;;;-0.40;1.00;;;;;;5095611;28;20982;-58
2022/02/12 07:25:46;;;;;;;13.57;3.23;;;-0.40;1.00;;;;;;5095915;28;20960;-59
2022/02/12 07:28:13;;;;;;;12.00;2.87;;;-0.30;1.00;;;;;;5095830;28;20495;-55
2022/02/12 07:30:41;;;;;;;11.53;2.67;;;-0.20;1.00;;;;;;5095709;28;20450;-57
2022/02/12 07:33:09;;;;;;;10.83;2.97;;;-0.20;1.00;;;;;;5095360;28;20549;-58
2022/02/12 07:35:35;;;;;;;6.27;2.53;;;-0.10;1.00;;;;;;5095476;28;20489;-58
2022/02/12 07:38:02;;;;;;;10.33;2.83;;;0.00;1.00;;;;;;5095481;28;20451;-57
2022/02/12 07:40:30;;;;;;;8.37;2.63;;;0.00;1.00;;;;;;5095353;28;20844;-58
2022/02/12 07:42:57;;;;;;;6.70;2.73;;;0.10;1.00;;;;;;5095690;28;20470;-58
2022/02/12 07:45:24;;;;;;;6.90;2.60;;;0.20;1.00;;;;;;5095158;28;20448;-58
2022/02/12 07:47:54;;;;;;;7.93;2.47;;;0.20;1.00;;;;;;5095406;28;20474;-58
2022/02/12 07:50:21;;;;;;;7.80;2.63;;;0.20;1.00;;;;;;5095101;28;20564;-58
2022/02/12 07:52:47;;;;;;;5.77;2.73;;;0.30;1.00;;;;;;5094994;28;20467;-57
2022/02/12 07:55:15;;;;;;;7.20;2.47;;;0.40;1.00;;;;;;5095104;28;20491;-58
2022/02/12 07:57:42;;;;;;;11.43;2.83;;;0.40;1.00;;;;;;5094721;28;20945;-57
2022/02/12 08:00:10;;;;;;;8.93;2.30;;;0.50;1.00;;;;;;5094893;28;20449;-57
2022/02/12 08:02:37;;;;;;;10.30;2.77;;;0.50;1.00;;;;;;5095263;28;20523;-58
2022/02/12 08:05:07;;;;;;;8.63;2.70;;;0.50;1.00;;;;;;5095037;28;20447;-57
2022/02/12 08:07:37;;;;;;;5.67;2.60;;;0.60;1.00;;;;;;5094798;28;20942;-57
2022/02/12 08:11:22;;;;;;;7.87;2.53;;;0.70;1.00;;;;;;5094675;28;20450;-57
2022/02/12 08:12:54;;;;;;;5.80;2.07;;;0.80;1.00;;;;;;5094536;28;20463;-55
2022/02/12 08:15:21;;;;;;;4.50;1.80;;;0.90;1.00;;;;;;5094631;28;20480;-56
2022/02/12 08:17:48;;;;;;;7.90;2.67;;;0.90;1.00;;;;;;5093901;28;20443;-57
2022/02/12 08:20:16;;;;;;;9.90;2.30;;;1.10;1.00;;;;;;5094557;28;20451;-56
2022/02/12 08:22:43;;;;;;;7.47;2.60;;;1.20;1.00;;;;;;5094677;28;20516;-57
2022/02/12 08:25:11;;;;;;;8.23;2.90;;;1.20;1.00;;;;;;5094516;28;20876;-58
2022/02/12 08:27:38;;;;;;;13.10;2.27;;;1.20;1.00;;;;;;5094427;28;20504;-58
2022/02/12 08:30:07;;;;;;;7.27;2.63;;;1.20;1.00;;;;;;5094697;28;20447;-54
2022/02/12 08:32:33;;;;;;;6.37;2.40;;;1.20;1.00;;;;;;5094274;28;20460;-58
2022/02/12 08:35:00;;;;;;;11.53;3.33;;;1.30;1.00;;;;;;5094327;28;20522;-58
2022/02/12 08:37:28;;;;;;;10.53;2.93;;;1.40;1.00;;;;;;5094068;28;20485;-59
2022/02/12 08:39:55;;;;;;;10.33;3.30;;;1.40;1.00;;;;;;5094393;28;20552;-58
2022/02/12 08:42:21;;;;;;;11.60;3.23;;;1.50;1.00;;;;;;5094139;28;20449;-58
2022/02/12 08:44:48;;;;;;;8.27;3.67;;;1.60;1.00;;;;;;5094167;28;20497;-59
2022/02/12 08:47:16;;;;;;;8.47;3.30;;;1.60;1.00;;;;;;5094293;28;20438;-57
2022/02/12 08:49:43;;;;;;;8.30;3.40;;;1.70;1.00;;;;;;5094090;28;20485;-58
2022/02/12 08:52:10;;;;;;;11.50;4.13;;;1.80;1.00;;;;;;5094101;28;20488;-56
2022/02/12 08:54:38;;;;;;;10.83;2.77;;;1.80;1.00;;;;;;5093991;28;20542;-57
2022/02/12 08:57:05;;;;;;;9.40;3.47;;;1.90;1.00;;;;;;5093819;28;20848;-54
2022/02/12 08:59:32;;;;;;;10.10;3.27;;;1.90;1.00;;;;;;5093916;28;20450;-57
2022/02/12 09:01:59;;;;;;;5.70;2.53;;;2.10;1.00;;;;;;5093406;28;20997;-55
2022/02/12 09:04:25;;;;;;;11.60;3.00;;;2.10;1.00;;;;;;5093524;28;20466;-57
2022/02/12 09:06:52;;;;;;;9.93;3.00;;;2.20;1.00;;;;;;5093547;28;20499;-54
2022/02/12 09:09:20;;;;;;;9.97;2.83;;;2.30;1.00;;;;;;5093922;28;20886;-55
2022/02/12 09:11:48;;;;;;;12.27;3.60;;;2.30;1.00;;;;;;5093696;28;20481;-54
2022/02/12 09:14:15;;;;;;;9.87;3.70;;;2.40;1.00;;;;;;5093306;28;20508;-54
2022/02/12 09:16:43;;;;;;;13.03;3.13;;;2.50;1.00;;;;;;5093160;28;20482;-57
2022/02/12 09:19:10;;;;;;;7.80;2.97;;;2.60;1.00;;;;;;5093205;28;20450;-55
2022/02/12 09:21:37;;;;;;;8.33;3.20;;;2.70;1.00;;;;;;5093750;28;20485;-54
2022/02/12 09:24:05;;;;;;;8.00;3.23;;;2.70;1.00;;;;;;5093223;28;20545;-55
2022/02/12 09:26:32;;;;;;;8.40;2.90;;;2.80;1.00;;;;;;5093307;28;20503;-54
2022/02/12 09:29:02;;;;;;;10.10;3.40;;;2.80;1.00;;;;;;5092561;28;20457;-57
2022/02/12 09:31:29;;;;;;;10.27;3.47;;;2.90;1.00;;;;;;5092716;28;20504;-58
2022/02/12 09:33:55;;;;;;;10.30;3.47;;;2.90;1.00;;;;;;5085538;28;20478;-66
2022/02/12 09:36:22;;;;;;;8.63;2.77;;;3.00;1.00;;;;;;5092410;28;20489;-55
2022/02/12 09:38:49;;;;;;;9.40;3.37;;;3.20;1.00;;;;;;5092852;28;20442;-58
2022/02/12 09:41:20;;;;;;;13.37;3.90;;;3.20;1.00;;;;;;5092414;28;20451;-56
2022/02/12 09:43:49;;;;;;;12.50;3.63;;;3.20;1.00;;;;;;5092513;28;20475;-59
2022/02/12 09:46:38;;;;;;;11.53;3.37;;;3.20;1.00;;;;;;5092455;28;20446;-55
2022/02/12 09:49:05;;;;;;;6.87;3.03;;;3.20;1.00;;;;;;5092527;28;20517;-58
2022/02/12 09:51:33;;;;;;;9.03;2.83;;;3.20;1.00;;;;;;5092566;28;21077;-56
2022/02/12 09:54:00;;;;;;;9.47;3.17;;;3.20;99.90;;;;;;5092141;28;20463;-58
2022/02/12 09:56:27;;;;;;;12.50;3.20;;;3.30;99.90;;;;;;5092354;28;20490;-58
2022/02/12 09:58:53;;;;;;;6.00;3.23;;;3.30;99.90;;;;;;5092315;28;20445;-58
2022/02/12 10:01:22;;;;;;;8.50;2.30;;;3.30;99.90;;;;;;5092231;28;20442;-55
2022/02/12 10:03:49;;;;;;;5.37;2.30;;;3.50;99.90;;;;;;5092400;28;20458;-58
2022/02/12 10:06:16;;;;;;;13.00;3.17;;;3.50;99.90;;;;;;5092113;28;20446;-58
2022/02/12 10:09:03;;;;;;;8.57;2.67;;;3.60;99.90;;;;;;5092505;28;20450;-59
2022/02/12 10:11:40;;;;;;;12.33;2.77;;;3.60;99.90;;;;;;5092051;28;20511;-59
2022/02/12 10:14:11;;;;;;;9.70;2.63;;;3.70;99.90;;;;;;5092365;28;20524;-59
2022/02/12 10:16:58;;;;;;;9.50;3.13;;;3.80;99.90;;;;;;5092478;28;20479;-59
2022/02/12 10:19:35;;;;;;;13.33;3.03;;;4.00;99.90;;;;;;5092095;28;20208;-59
2022/02/12 10:22:15;;;;;;;8.33;2.93;;;4.10;99.90;;;;;;5092389;28;20266;-59
2022/02/12 10:24:50;;;;;;;7.23;2.40;;;4.20;99.90;;;;;;5091983;28;20534;-58
2022/02/12 10:27:17;;;;;;;6.40;2.13;;;4.30;99.90;;;;;;5092018;28;20534;-59
2022/02/12 10:29:47;;;;;;;8.30;2.50;;;4.40;99.90;;;;;;5091803;28;20274;-59
2022/02/12 10:32:17;;;;;;;6.67;2.13;;;4.50;99.90;;;;;;5092080;28;20459;-58
2022/02/12 10:34:45;;;;;;;6.33;2.60;;;4.50;99.90;;;;;;5091769;28;20202;-57
2022/02/12 10:37:14;;;;;;;9.90;2.53;;;4.50;99.90;;;;;;5091343;28;20226;-59
2022/02/12 10:39:53;;;;;;;6.47;2.23;;;4.40;99.90;;;;;;5092088;28;20288;-59
2022/02/12 10:42:21;;;;;;;8.07;2.83;;;4.60;99.90;;;;;;5091513;28;20207;-59
2022/02/12 10:44:47;;;;;;;10.73;2.80;;;4.70;99.90;;;;;;5092722;28;20217;-58
2022/02/12 10:47:15;;;;;;;6.33;2.00;;;4.80;99.90;;;;;;5092292;28;20676;-58
2022/02/12 10:49:43;;;;;;;9.40;2.30;;;4.90;99.90;;;;;;5092092;28;20592;-58
2022/02/12 10:52:11;;;;;;;7.30;2.70;;;5.00;99.90;;;;;;5091835;28;20205;-57
2022/02/12 10:54:45;;;;;;;7.93;2.27;;;5.00;99.90;;;;;;5091118;28;20618;-60
2022/02/12 10:57:13;;;;;;;6.60;1.87;;;5.10;99.90;;;;;;5091459;28;20275;-60
2022/02/12 10:59:43;;;;;;;6.00;2.40;;;5.00;99.90;;;;;;5092312;28;20209;-63
2022/02/12 11:02:11;;;;;;;4.87;1.67;;;5.10;99.90;;;;;;5087581;28;20206;-63
2022/02/12 11:04:41;;;;;;;6.07;2.53;;;5.20;99.90;;;;;;5100091;28;20232;-60
2022/02/12 11:07:13;;;;;;;7.33;2.27;;;5.10;99.90;;;;;;5091432;28;20225;-59
2022/02/12 11:09:40;;;;;;;8.30;2.10;;;5.10;99.90;;;;;;5091238;28;20306;-62
2022/02/12 11:12:08;;;;;;;6.53;1.93;;;5.30;99.90;;;;;;5091365;28;20209;-62
2022/02/12 11:14:36;;;;;;;4.03;1.87;;;5.40;99.90;;;;;;5091182;28;20228;-62
2022/02/12 11:17:06;;;;;;;6.80;2.53;;;5.50;99.90;;;;;;5091315;28;20251;-62
2022/02/12 11:19:34;;;;;;;7.20;2.00;;;5.50;99.90;;;;;;5091924;28;20209;-60
2022/02/12 11:22:03;;;;;;;7.93;2.10;;;5.40;99.90;;;;;;5091388;28;20210;-60
2022/02/12 11:24:37;;;;;;;4.23;1.90;;;5.40;99.90;;;;;;5090592;28;20620;-59
2022/02/12 11:27:18;;;;;;;7.17;2.10;;;5.50;99.90;;;;;;5090715;28;20196;-61
2022/02/12 11:29:45;;;;;;;5.03;2.20;;;5.60;99.90;;;;;;5090801;28;20223;-60
2022/02/12 11:32:14;;;;;;;7.67;1.97;;;5.60;99.90;;;;;;5090632;28;20671;-62
2022/02/12 11:35:09;;;;;;;5.37;1.87;;;5.50;99.90;;;;;;5090252;28;20207;-63
2022/02/12 11:37:39;;;;;;;7.67;2.70;;;5.50;99.90;;;;;;5090333;28;20791;-62
2022/02/12 11:40:14;;;;;;;6.87;1.63;;;5.70;99.90;;;;;;5091016;28;20216;-61
2022/02/12 11:42:44;;;;;;;6.37;1.87;;;5.60;99.90;;;;;;5090631;28;20632;-61
2022/02/12 11:45:31;;;;;;;5.80;2.30;;;5.40;99.90;;;;;;5090757;28;20235;-61
2022/02/12 11:48:19;;;;;;;7.43;2.07;;;5.50;99.90;;;;;;5090446;28;20204;-60
2022/02/12 11:50:51;;;;;;;9.00;2.33;;;5.50;99.90;;;;;;5091030;28;20609;-60
2022/02/12 11:53:39;;;;;;;6.00;2.40;;;5.40;99.90;;;;;;5091841;28;20758;-61
2022/02/12 11:56:10;;;;;;;6.53;1.93;;;5.40;99.90;;;;;;5094414;28;20211;-63
2022/02/12 11:59:00;;;;;;;5.97;2.07;;;5.60;99.90;;;;;;5094330;28;20293;-64
2022/02/12 12:01:50;;;;;;;9.83;1.90;;;5.70;99.90;;;;;;5094385;28;20208;-62
2022/02/12 12:04:18;;;;;;;8.77;2.00;;;5.80;99.90;;;;;;5094146;28;20345;-61
2022/02/12 12:07:12;;;;;;;5.63;1.97;;;5.90;99.90;;;;;;5094160;28;20250;-61
2022/02/12 12:09:59;;;;;;;8.10;1.87;;;6.00;99.90;;;;;;5094316;28;20211;-62
2022/02/12 12:12:26;;;;;;;4.63;1.87;;;6.00;99.90;;;;;;5094201;28;20592;-60
2022/02/12 12:15:13;;;;;;;6.87;2.13;;;6.00;99.90;;;;;;5094264;28;20205;-60
2022/02/12 12:17:40;;;;;;;7.53;1.63;;;5.90;99.90;;;;;;5093699;28;20223;-61
2022/02/12 12:20:07;;;;;;;8.50;2.43;;;6.10;99.90;;;;;;5094000;28;20208;-61
2022/02/12 12:22:34;;;;;;;8.20;2.23;;;6.10;99.90;;;;;;5093585;28;20208;-62
2022/02/12 12:25:03;;;;;;;3.30;2.10;;;6.20;99.90;;;;;;5093757;28;20580;-61
2022/02/12 12:27:34;;;;;;;6.60;2.57;;;5.90;99.90;;;;;;5093914;28;20254;-61
2022/02/12 12:33:02;;;;;;;4.80;2.03;;;6.20;99.90;;;;;;5052214;28;20236;-63
2022/02/12 12:35:29;;;;;;;5.83;1.70;;;6.20;99.90;;;;;;5073442;28;20212;-62
2022/02/12 12:37:57;;;;;;;3.50;1.40;;;6.30;99.90;;;;;;5073221;28;20324;-62
2022/02/12 12:40:29;;;;;;;3.93;2.03;;;6.20;99.90;;;;;;5073089;28;20209;-63
2022/02/12 12:43:01;;;;;;;5.17;1.90;;;6.20;99.90;;;;;;5073048;28;20278;-60
2022/02/12 12:45:28;;;;;;;11.63;3.60;;;6.30;99.90;;;;;;5072895;28;20200;-60
2022/02/12 12:47:56;;;;;;;7.17;2.20;;;6.20;99.90;;;;;;5073113;28;20201;-60
2022/02/12 12:50:23;;;;;;;9.20;2.23;;;6.30;99.90;;;;;;5073657;28;20266;-60
2022/02/12 12:53:01;;;;;;;6.20;2.37;;;6.40;99.90;;;;;;5072580;28;20221;-64
2022/02/12 12:55:29;;;;;;;3.10;1.70;;;6.40;99.90;;;;;;5073758;28;20205;-63
2022/02/12 12:57:56;;;;;;;5.43;2.40;;;6.40;99.90;;;;;;5073991;28;20279;-64
2022/02/12 13:00:25;;;;;;;5.67;3.13;;;6.60;99.90;;;;;;5073462;28;20212;-65
2022/02/12 13:02:54;;;;;;;6.80;2.10;;;6.60;99.90;;;;;;5074150;28;20316;-64
2022/02/12 13:05:22;;;;;;;8.67;2.10;;;6.50;99.90;;;;;;5073647;28;20205;-65
2022/02/12 13:07:50;;;;;;;6.60;2.63;;;6.40;99.90;;;;;;5073308;28;20299;-64
2022/02/12 13:10:17;;;;;;;4.60;1.80;;;6.60;99.90;;;;;;5072715;28;20709;-63
2022/02/12 13:12:45;;;;;;;4.53;2.10;;;6.60;99.90;;;;;;5072898;28;20228;-62